Shaktoolik, AK

7:50 PM AKDT on July 28, 2015 (GMT -0800)
Shaktoolik Airport | | Change Station
CLOSE
Current Station
Airport
Location: Shaktoolik Airport,
Elevation: 23 ft
Nearby Weather Stations

Elev 23 ft 64.37 °N, 161.22 °W | Updated 52 minutes ago

Clear
Clear
58 °F
Feels Like 58 °F
N
9
Wind Variable Wind from SW

Today
High -- | Low -- °F
--% Chance of Precip.
Yesterday
High -- | Low -- °F
Precip. -- in
5:36 AM 0:03 AM
Waxing Gibbous, 93% visible
Pressure 29.89 in
Visibility 10.0 miles
Clouds Clear
Dew Point 52 °F
Humidity 81%
Rainfall 0.00 in
Snow Depth Not available.
UV 3 out of 12
Pollen Not available.
Air Quality Not available.
Flu Activity Not available.
METAR PFSH 290258Z AUTO 23008KT 10SM CLR 14/11 A2984 RMK AO2 SLP120 T01440111 55003

More Conditions Fewer Conditions

Pressure 29.89 in
Visibility 10.0 miles
Clouds Clear
Dew Point 52 °F
Humidity 81%
Rainfall 0.00 in
Snow Depth Not available.
UV 3 out of 12
Pollen Not available.
Air Quality Not available.
Flu Activity Not available.
METAR PFSH 290258Z AUTO 23008KT 10SM CLR 14/11 A2984 RMK AO2 SLP120 T01440111 55003

More Conditions Fewer Conditions

10-Day Weather Forecast

×

Almanac

Astronomy

Jul. 28, 2015 Rise Set
Actual Time
Civil Twilight
Nautical Twilight
Astronomical Twilight
Moon
Length of Visible Light
Length of Day
Tomorrow will be .
, % of the Moon is Illuminated

Today's Extremes

State Highs State Lows

Community

WunderPhotos

Upload Photos

1,842,025 photos uploaded!

WunderBlogs® & News

Nearby

Air Quality

  Air Quality AQ Index Pollutant
Not available.

Snow Depth

Station Depth Elevation

Earthquake Activity

City Distance Mag. Time & Date
Minimum magnitude displayed is 2.5.

Coastal Water Temperatures

Place Temperature

Stations

Nearby Weather Stations

Station Location Temp. Windchill Dew Point Humidity Wind Precip. Elev Updated Type